Time;durP1;ratioP1;P1;durP2;ratioP2;P2;SDS_P1;SDS_P2;PMS_P1;PMS_P2;Temp;Humidity;BMP_temperature;BMP_pressure;BME280_temperature;BME280_humidity;BME280_pressure;Samples;Min_cycle;Max_cycle;Signal;HPM_P1;HPM_P2
2021/08/11 00:02:20;;;;;;;6.00;4.70;;;;;;;18.66;85.41;156159.31;5070001;28;20489;-74
2021/08/11 00:04:55;;;;;;;6.50;5.50;;;;;;;18.66;85.87;156159.31;5052009;28;20467;-74
2021/08/11 00:07:31;;;;;;;5.07;4.60;;;;;;;18.68;86.23;156164.50;5061761;28;20441;-74
2021/08/11 00:10:09;;;;;;;5.20;4.33;;;;;;;18.67;85.67;156160.56;5059134;28;20829;-74
2021/08/11 00:12:45;;;;;;;4.60;3.67;;;;;;;18.65;85.05;156155.38;5066969;28;20538;-74
2021/08/11 00:15:20;;;;;;;4.57;3.63;;;;;;;18.63;84.91;156151.47;5052889;28;20466;-74
2021/08/11 00:17:55;;;;;;;7.30;4.40;;;;;;;18.61;83.87;156144.97;5057939;28;20473;-74
2021/08/11 00:20:35;;;;;;;4.10;3.80;;;;;;;18.62;84.24;156147.53;5073093;28;20430;-74
2021/08/11 00:23:11;;;;;;;4.53;4.13;;;;;;;18.61;84.10;156144.97;5072923;28;20429;-74
2021/08/11 00:25:47;;;;;;;4.90;4.50;;;;;;;18.60;83.80;156142.34;5069702;28;20430;-74
2021/08/11 00:28:23;;;;;;;5.73;4.40;;;;;;;18.60;84.06;156142.34;5060860;28;20475;-74
2021/08/11 00:30:58;;;;;;;4.43;4.03;;;;;;;18.61;84.57;156146.22;5051568;28;20573;-74
2021/08/11 00:33:34;;;;;;;4.40;4.00;;;;;;;18.57;83.66;156135.84;5065855;28;20446;-74
2021/08/11 00:36:10;;;;;;;4.63;3.90;;;;;;;18.59;84.59;156139.72;5071776;28;20765;-74
2021/08/11 00:38:47;;;;;;;8.37;6.03;;;;;;;18.55;83.79;156129.31;5071656;28;20574;-74
2021/08/11 00:41:24;;;;;;;5.03;4.13;;;;;;;18.51;83.44;156118.88;5036182;28;20447;-74
2021/08/11 00:44:00;;;;;;;3.90;3.50;;;;;;;18.48;84.20;156112.38;5059722;28;20563;-74
2021/08/11 00:46:35;;;;;;;4.50;4.13;;;;;;;18.46;84.16;156105.81;5052913;28;20442;-74
2021/08/11 00:49:15;;;;;;;4.77;4.00;;;;;;;18.38;84.58;156084.97;5070337;28;20972;-74
2021/08/11 00:51:52;;;;;;;3.87;3.57;;;;;;;18.38;85.88;156084.97;5065108;28;20458;-74
2021/08/11 00:54:29;;;;;;;4.23;3.87;;;;;;;18.39;86.14;156087.59;5079217;28;20445;-74
2021/08/11 00:57:08;;;;;;;5.03;4.10;;;;;;;18.33;86.36;156073.25;5076185;28;20448;-74
2021/08/11 00:59:44;;;;;;;4.67;4.27;;;;;;;18.30;86.80;156065.44;5067232;28;20438;-74
2021/08/11 01:02:25;;;;;;;3.57;3.27;;;;;;;18.25;87.76;156053.72;5039384;28;20438;-74
2021/08/11 01:05:03;;;;;;;6.83;4.40;;;;;;;18.22;86.84;156044.59;5089408;28;20828;-74
2021/08/11 01:07:40;;;;;;;6.17;4.00;;;;;;;18.22;88.35;156044.59;5074584;28;20445;-74
2021/08/11 01:10:16;;;;;;;5.00;3.83;;;;;;;18.24;87.41;156051.09;5066879;28;20476;-74
2021/08/11 01:12:53;;;;;;;4.30;3.77;;;;;;;18.18;87.63;156035.50;5080004;28;20466;-74
2021/08/11 01:15:29;;;;;;;5.20;4.70;;;;;;;18.11;88.72;156017.25;5076750;28;20445;-74
2021/08/11 01:18:06;;;;;;;5.10;4.60;;;;;;;18.11;89.73;156017.25;5061659;28;20439;-74
2021/08/11 01:20:49;;;;;;;5.20;4.77;;;;;;;18.11;89.59;156015.94;5093073;28;20449;-74
2021/08/11 01:23:30;;;;;;;5.80;4.37;;;;;;;18.07;89.36;156006.84;5094996;28;20505;-75
2021/08/11 01:26:12;;;;;;;4.90;4.37;;;;;;;18.06;89.62;156004.22;5059383;28;21880;-74
2021/08/11 01:29:10;;;;;;;5.47;4.63;;;;;;;18.05;89.82;156001.66;5079685;28;20441;-74
2021/08/11 01:31:48;;;;;;;8.13;4.47;;;;;;;18.03;90.21;155996.41;5077260;28;20453;-74
2021/08/11 01:34:29;;;;;;;6.80;6.00;;;;;;;18.03;90.03;155995.16;5069864;28;20446;-74
2021/08/11 01:37:07;;;;;;;6.23;4.90;;;;;;;18.01;89.86;155989.88;5070643;28;20955;-74
2021/08/11 01:39:48;;;;;;;7.57;4.97;;;;;;;17.99;90.09;155986.00;5093985;28;20835;-74
2021/08/11 01:42:37;;;;;;;5.50;4.47;;;;;;;18.02;90.13;155993.81;5069836;28;20438;-74
2021/08/11 01:45:16;;;;;;;6.30;4.53;;;;;;;18.00;89.67;155988.59;5078049;28;20539;-74
2021/08/11 01:48:01;;;;;;;5.63;4.77;;;;;;;17.96;90.48;155976.88;5079226;28;20955;-74
2021/08/11 01:50:41;;;;;;;4.93;4.53;;;;;;;17.94;90.80;155973.00;5090461;28;20472;-74
2021/08/11 01:53:21;;;;;;;5.97;4.63;;;;;;;17.96;90.44;155978.19;5083188;28;20809;-74
2021/08/11 01:55:58;;;;;;;9.23;5.30;;;;;;;17.97;90.76;155979.50;5059155;28;20457;-74
2021/08/11 01:58:41;;;;;;;6.90;5.20;;;;;;;17.95;90.28;155975.56;5075800;28;20466;-74
2021/08/11 02:01:19;;;;;;;6.17;5.50;;;;;;;17.89;90.25;155959.97;5058318;28;20450;-74
2021/08/11 02:03:57;;;;;;;5.20;4.67;;;;;;;17.87;90.15;155954.72;5074310;28;20785;-74
2021/08/11 02:06:35;;;;;;;9.77;5.27;;;;;;;17.81;91.29;155939.16;5038968;28;20956;-74
2021/08/11 02:09:16;;;;;;;5.60;4.93;;;;;;;17.77;91.00;155928.69;5085407;28;20446;-74
2021/08/11 02:11:52;;;;;;;8.33;4.50;;;;;;;17.72;91.17;155915.69;5054000;28;20438;-74
2021/08/11 02:14:28;;;;;;;6.40;4.60;;;;;;;17.62;91.06;155890.97;5055106;28;20419;-74
2021/08/11 02:17:04;;;;;;;6.17;5.20;;;;;;;17.55;92.33;155871.47;5052644;28;20544;-74
2021/08/11 02:19:40;;;;;;;5.90;5.30;;;;;;;17.56;93.40;155875.34;5090459;28;20444;-74
2021/08/11 02:22:17;;;;;;;8.00;5.70;;;;;;;17.51;92.73;155860.97;5078552;28;20433;-74
2021/08/11 02:24:53;;;;;;;6.00;5.40;;;;;;;17.39;93.19;155829.75;5068794;28;20569;-74
2021/08/11 02:27:31;;;;;;;6.07;5.20;;;;;;;17.34;95.36;155816.72;5065699;28;20530;-74
2021/08/11 02:30:10;;;;;;;10.40;5.80;;;;;;;17.28;96.85;155801.09;5074276;28;20466;-74
2021/08/11 02:32:50;;;;;;;7.40;5.87;;;;;;;17.22;96.10;155786.78;5073674;28;20415;-74
2021/08/11 02:35:29;;;;;;;8.23;6.20;;;;;;;17.18;96.50;155776.41;5056507;28;20442;-74
2021/08/11 02:38:11;;;;;;;8.10;5.97;;;;;;;17.19;97.65;155777.66;5066767;28;20460;-74
2021/08/11 02:40:53;;;;;;;7.07;5.63;;;;;;;17.16;96.85;155771.16;5074326;28;20446;-74
2021/08/11 02:43:34;;;;;;;7.80;6.17;;;;;;;17.12;97.00;155759.47;5102896;28;20458;-74
2021/08/11 02:46:13;;;;;;;6.90;4.87;;;;;;;17.10;97.46;155754.25;5094712;28;20443;-74
2021/08/11 02:48:52;;;;;;;5.97;5.30;;;;;;;17.07;97.30;155747.75;5073606;28;20442;-74
2021/08/11 02:51:28;;;;;;;8.23;5.40;;;;;;;17.05;97.44;155743.81;5090660;28;20967;-74
2021/08/11 02:54:08;;;;;;;6.47;5.60;;;;;;;17.02;96.91;155736.00;5107512;28;20430;-74
2021/08/11 02:56:44;;;;;;;7.87;6.50;;;;;;;17.01;96.99;155733.44;5062654;28;20928;-74
2021/08/11 02:59:22;;;;;;;6.57;5.00;;;;;;;16.98;97.79;155725.63;5079882;28;20442;-74
2021/08/11 03:01:58;;;;;;;7.50;6.50;;;;;;;16.95;97.77;155717.81;5049507;28;20545;-74
2021/08/11 03:04:34;;;;;;;7.00;6.30;;;;;;;16.97;97.45;155723.00;5037178;28;20536;-74
2021/08/11 03:07:11;;;;;;;6.60;5.57;;;;;;;16.95;97.45;155716.50;5037910;28;20966;-74
2021/08/11 03:09:48;;;;;;;9.30;6.63;;;;;;;16.94;97.81;155715.19;5053172;28;20419;-74
2021/08/11 03:12:23;;;;;;;8.93;5.80;;;;;;;16.97;97.64;155721.75;5037545;28;20443;-75
2021/08/11 03:14:59;;;;;;;6.80;5.90;;;;;;;16.98;97.42;155725.63;5086490;28;20432;-75
2021/08/11 03:17:35;;;;;;;6.87;5.33;;;;;;;17.00;97.77;155729.50;5054809;28;20452;-75
2021/08/11 03:20:11;;;;;;;7.57;6.00;;;;;;;17.00;98.44;155730.81;5038019;28;20791;-75
2021/08/11 03:22:47;;;;;;;7.20;5.40;;;;;;;16.99;97.85;155728.25;5084241;28;20880;-74
2021/08/11 03:25:24;;;;;;;9.03;5.63;;;;;;;16.98;98.20;155725.63;5070533;28;21007;-74
2021/08/11 03:28:00;;;;;;;7.27;6.00;;;;;;;17.01;97.88;155733.44;5052755;28;20878;-74
2021/08/11 03:30:37;;;;;;;6.30;5.70;;;;;;;17.01;98.13;155733.44;5046069;28;20483;-75
2021/08/11 03:33:13;;;;;;;7.07;6.17;;;;;;;16.97;98.24;155723.00;5089865;28;20778;-74
2021/08/11 03:35:48;;;;;;;6.43;5.43;;;;;;;16.98;98.28;155725.63;5051228;28;20929;-75
2021/08/11 03:38:24;;;;;;;6.60;5.90;;;;;;;16.97;97.61;155723.00;5072601;28;20451;-75
2021/08/11 03:41:02;;;;;;;7.70;6.40;;;;;;;16.92;98.24;155710.00;5069823;28;20456;-75
2021/08/11 03:43:39;;;;;;;6.70;6.00;;;;;;;16.87;98.25;155697.00;5076872;28;20449;-75
2021/08/11 03:46:15;;;;;;;6.70;6.10;;;;;;;16.89;98.26;155702.19;5077312;28;20441;-74
2021/08/11 03:48:50;;;;;;;6.27;5.37;;;;;;;16.91;98.36;155706.13;5076639;28;20440;-75
2021/08/11 03:51:27;;;;;;;7.60;6.70;;;;;;;16.92;97.77;155710.00;5069745;28;20486;-75
2021/08/11 03:54:02;;;;;;;7.63;6.63;;;;;;;16.92;97.80;155708.69;5083514;28;20446;-75
2021/08/11 03:56:41;;;;;;;7.07;6.37;;;;;;;16.94;97.72;155713.94;5037046;28;20545;-75
2021/08/11 03:59:16;;;;;;;7.97;6.50;;;;;;;16.97;97.40;155723.00;5080106;28;20526;-74
2021/08/11 04:01:54;;;;;;;8.90;6.20;;;;;;;16.99;97.87;155728.25;5056631;28;20447;-75
2021/08/11 04:04:29;;;;;;;6.90;6.10;;;;;;;16.99;97.16;155728.25;5106009;28;20442;-74
2021/08/11 04:07:05;;;;;;;6.43;5.70;;;;;;;17.03;97.50;155737.31;5072288;28;20438;-75
2021/08/11 04:09:40;;;;;;;7.37;5.37;;;;;;;17.03;97.42;155738.63;5090479;28;20439;-75
2021/08/11 04:12:17;;;;;;;6.93;6.17;;;;;;;17.05;97.47;155743.81;5083962;28;20452;-74
2021/08/11 04:14:52;;;;;;;7.13;5.70;;;;;;;17.11;97.42;155756.84;5092053;28;20445;-75
2021/08/11 04:17:28;;;;;;;8.10;6.13;;;;;;;17.11;97.77;155758.16;5084235;28;20449;-75
2021/08/11 04:20:04;;;;;;;6.27;5.67;;;;;;;17.04;97.44;155739.94;5092076;28;20417;-75
2021/08/11 04:22:39;;;;;;;7.07;6.37;;;;;;;16.99;98.76;155728.25;5105655;28;20786;-75
2021/08/11 04:25:15;;;;;;;7.20;6.30;;;;;;;16.96;98.12;155720.44;5102874;28;20979;-75
2021/08/11 04:27:52;;;;;;;7.80;6.40;;;;;;;16.93;98.42;155712.63;5100848;28;20450;-75
2021/08/11 04:30:27;;;;;;;8.80;5.60;;;;;;;16.88;99.73;155699.63;5075762;28;20477;-75
2021/08/11 04:33:03;;;;;;;6.63;5.77;;;;;;;16.89;99.28;155700.94;5092201;28;20409;-75
2021/08/11 04:35:38;;;;;;;7.13;6.43;;;;;;;16.88;99.04;155699.63;5085432;28;20474;-75
2021/08/11 04:38:16;;;;;;;13.00;6.30;;;;;;;16.91;99.31;155707.44;5052701;28;20828;-75
2021/08/11 04:40:52;;;;;;;6.80;6.10;;;;;;;16.90;98.73;155704.81;5088658;28;20431;-75
2021/08/11 04:43:29;;;;;;;7.63;5.80;;;;;;;16.82;98.94;155684.00;5101008;28;20533;-75
2021/08/11 04:46:05;;;;;;;7.30;6.60;;;;;;;16.76;99.54;155668.38;5072746;28;20433;-75
2021/08/11 04:48:41;;;;;;;7.63;6.37;;;;;;;16.71;99.42;155655.34;5080932;28;20444;-75
2021/08/11 04:51:16;;;;;;;7.90;7.10;;;;;;;16.76;100.00;155668.38;5084390;28;20478;-75
2021/08/11 04:53:52;;;;;;;8.77;5.87;;;;;;;16.75;99.86;155664.47;5052596;28;20894;-75
2021/08/11 04:56:27;;;;;;;8.07;6.37;;;;;;;16.71;100.00;155655.34;5053125;28;20461;-75
2021/08/11 04:59:04;;;;;;;9.57;5.80;;;;;;;16.67;100.00;155644.97;5064254;28;20441;-75
2021/08/11 05:01:40;;;;;;;9.80;7.50;;;;;;;16.66;100.00;155641.03;5097175;28;20446;-75
2021/08/11 05:04:15;;;;;;;7.67;6.47;;;;;;;16.65;100.00;155639.78;5104371;28;20442;-75
2021/08/11 05:06:51;;;;;;;8.87;6.67;;;;;;;16.66;100.00;155642.34;5072479;28;20442;-74
2021/08/11 05:09:26;;;;;;;12.10;7.07;;;;;;;16.66;100.00;155641.03;5070531;28;20442;-74
2021/08/11 05:12:02;;;;;;;7.93;6.07;;;;;;;16.71;100.00;155655.34;5098783;28;20474;-74
2021/08/11 05:14:39;;;;;;;8.00;7.23;;;;;;;16.80;100.00;155678.78;5090155;28;20438;-75
2021/08/11 05:17:20;;;;;;;7.90;6.70;;;;;;;17.02;100.00;155736.00;5100512;28;20920;-75
2021/08/11 05:19:56;;;;;;;9.57;7.37;;;;;;;17.33;99.37;155814.13;5071414;28;20545;-75
2021/08/11 05:22:43;;;;;;;8.27;6.80;;;;;;;17.63;97.30;155893.53;5076753;28;20464;-75
2021/08/11 05:25:18;;;;;;;7.13;6.43;;;;;;;17.97;96.19;155980.81;5090358;28;20554;-74
2021/08/11 05:27:54;;;;;;;7.13;6.20;;;;;;;18.25;95.39;156052.41;5069984;28;20537;-75
2021/08/11 05:30:31;;;;;;;7.67;6.57;;;;;;;18.60;93.85;156142.34;5090145;28;20451;-75
2021/08/11 05:33:06;;;;;;;8.37;6.77;;;;;;;18.82;91.67;156199.69;5088035;28;20451;-75
2021/08/11 05:35:42;;;;;;;7.40;6.60;;;;;;;18.95;89.89;156232.25;5102717;28;20454;-75
2021/08/11 05:38:18;;;;;;;7.30;6.60;;;;;;;19.16;89.20;156288.28;5068542;28;20434;-75
2021/08/11 05:40:53;;;;;;;8.10;6.73;;;;;;;19.41;88.33;156353.47;5061840;28;20442;-75
2021/08/11 05:43:28;;;;;;;7.03;5.90;;;;;;;19.55;87.15;156388.69;5067218;28;20445;-75
2021/08/11 05:46:06;;;;;;;6.43;5.80;;;;;;;19.76;86.16;156443.44;5102449;28;20870;-75
2021/08/11 05:48:41;;;;;;;6.47;5.70;;;;;;;19.87;85.61;156472.13;5070573;28;20446;-75
2021/08/11 05:51:16;;;;;;;6.00;5.50;;;;;;;20.05;84.68;156517.75;5097930;28;20527;-75
2021/08/11 05:53:52;;;;;;;8.83;5.80;;;;;;;20.26;83.92;156571.25;5074278;28;20466;-75
2021/08/11 05:56:27;;;;;;;6.97;5.23;;;;;;;20.43;83.27;156615.63;5107392;28;20536;-75
2021/08/11 05:59:03;;;;;;;8.63;5.40;;;;;;;20.56;83.27;156649.53;5065654;28;20434;-75
2021/08/11 06:01:39;;;;;;;6.30;5.70;;;;;;;20.76;81.59;156700.44;5075456;28;20905;-75
2021/08/11 06:04:14;;;;;;;7.80;5.00;;;;;;;20.92;81.22;156743.47;5107894;28;20446;-75
2021/08/11 06:06:50;;;;;;;6.83;5.90;;;;;;;21.19;80.72;156812.69;5101785;28;20944;-74
2021/08/11 06:09:26;;;;;;;5.47;4.97;;;;;;;21.37;78.24;156859.66;5077241;28;20441;-75
2021/08/11 06:12:01;;;;;;;5.53;4.77;;;;;;;21.55;77.83;156906.66;5061997;28;20955;-75
2021/08/11 06:14:37;;;;;;;5.27;4.77;;;;;;;21.85;77.00;156985.00;5053794;28;20857;-75
2021/08/11 06:17:14;;;;;;;6.87;5.33;;;;;;;21.99;76.78;157019.00;5061842;28;20437;-75
2021/08/11 06:19:49;;;;;;;7.70;5.20;;;;;;;21.93;75.46;157003.31;5075210;28;20465;-75
2021/08/11 06:22:25;;;;;;;7.23;5.97;;;;;;;22.04;74.96;157033.38;5093492;28;20434;-75
2021/08/11 06:25:00;;;;;;;7.20;5.13;;;;;;;22.14;75.04;157058.16;5056828;28;20482;-75
2021/08/11 06:27:36;;;;;;;5.73;5.00;;;;;;;21.97;74.27;157013.78;5064183;28;20475;-75
2021/08/11 06:30:13;;;;;;;4.97;4.37;;;;;;;21.93;74.30;157004.63;5091113;28;20459;-75
2021/08/11 06:32:50;;;;;;;5.50;5.00;;;;;;;21.83;75.60;156979.78;5101770;28;20842;-75
2021/08/11 06:35:25;;;;;;;7.70;5.03;;;;;;;22.09;75.80;157045.09;5058340;28;20463;-75
2021/08/11 06:38:01;;;;;;;6.03;5.50;;;;;;;22.13;73.80;157055.56;5085802;28;20809;-75
2021/08/11 06:40:37;;;;;;;5.03;4.53;;;;;;;22.14;74.25;157059.47;5091397;28;20447;-75
2021/08/11 06:43:13;;;;;;;7.23;4.93;;;;;;;21.95;74.45;157008.56;5079358;28;20468;-75
2021/08/11 06:45:48;;;;;;;7.00;5.50;;;;;;;21.98;74.03;157017.69;5058225;28;20877;-75
2021/08/11 06:48:27;;;;;;;5.53;4.50;;;;;;;22.14;72.86;157058.16;5042616;28;20430;-75
2021/08/11 06:51:02;;;;;;;5.67;5.00;;;;;;;22.29;73.81;157097.38;5066746;28;20623;-75
2021/08/11 06:53:38;;;;;;;5.63;5.03;;;;;;;22.33;72.97;157107.78;5073140;28;20865;-75
2021/08/11 06:56:13;;;;;;;6.33;5.40;;;;;;;22.49;72.39;157149.59;5106718;28;20925;-75
2021/08/11 06:58:49;;;;;;;5.50;4.80;;;;;;;22.41;72.41;157130.00;5103581;28;20445;-75
2021/08/11 07:01:24;;;;;;;8.10;4.90;;;;;;;22.39;71.52;157123.47;5102716;28;20434;-75
2021/08/11 07:04:01;;;;;;;5.47;4.97;;;;;;;22.45;72.47;157139.16;5091789;28;20826;-75
2021/08/11 07:06:39;;;;;;;6.10;4.80;;;;;;;22.52;72.58;157156.13;5070363;28;20447;-75
2021/08/11 07:09:16;;;;;;;6.20;5.30;;;;;;;22.74;72.42;157214.94;5067499;28;20817;-75
2021/08/11 07:11:52;;;;;;;5.43;4.93;;;;;;;23.15;71.25;157320.81;5056947;28;20470;-75
2021/08/11 07:14:27;;;;;;;5.90;5.27;;;;;;;23.46;70.13;157400.56;5060818;28;20442;-75
2021/08/11 07:17:03;;;;;;;5.60;4.80;;;;;;;23.79;69.19;157486.88;5063668;28;20549;-75
2021/08/11 07:19:40;;;;;;;5.10;4.60;;;;;;;24.08;67.85;157561.38;5071316;28;20450;-75
2021/08/11 07:22:16;;;;;;;5.33;4.83;;;;;;;24.22;65.32;157599.31;5087609;28;20438;-75
2021/08/11 07:24:52;;;;;;;5.60;5.10;;;;;;;24.24;66.38;157603.28;5066331;28;20465;-75
2021/08/11 07:27:27;;;;;;;5.67;4.70;;;;;;;24.08;66.41;157562.75;5072517;28;20441;-75
2021/08/11 07:30:04;;;;;;;8.23;4.80;;;;;;;24.06;67.16;157557.47;5105854;28;20812;-75
2021/08/11 07:32:40;;;;;;;5.30;4.43;;;;;;;24.39;65.41;157641.19;5057755;28;20490;-75
2021/08/11 07:35:17;;;;;;;5.80;4.70;;;;;;;24.54;64.81;157680.47;5095556;28;20449;-75
2021/08/11 07:37:54;;;;;;;5.47;4.93;;;;;;;24.78;65.02;157744.56;5063470;28;20449;-75
2021/08/11 07:40:30;;;;;;;5.40;4.57;;;;;;;25.10;64.22;157827.00;5060131;28;20796;-74
2021/08/11 07:43:06;;;;;;;6.30;4.60;;;;;;;25.46;62.03;157918.63;5071295;28;21255;-74
2021/08/11 07:45:42;;;;;;;6.70;4.80;;;;;;;25.84;62.72;158018.19;5105303;28;20449;-75
2021/08/11 07:48:18;;;;;;;5.57;4.20;;;;;;;26.02;60.93;158066.63;5059261;28;20434;-75
2021/08/11 07:50:54;;;;;;;5.17;4.67;;;;;;;25.93;58.45;158043.03;5092477;28;20450;-75
2021/08/11 07:53:30;;;;;;;5.47;4.97;;;;;;;26.14;59.76;158095.44;5060601;28;20504;-75
2021/08/11 07:56:05;;;;;;;6.43;5.70;;;;;;;25.96;59.35;158050.91;5092291;28;20471;-75
2021/08/11 07:58:41;;;;;;;5.43;5.03;;;;;;;26.07;57.60;158077.06;5052371;28;20448;-75
2021/08/11 08:01:16;;;;;;;6.10;5.50;;;;;;;26.13;58.57;158092.84;5054557;28;20928;-75
2021/08/11 08:03:52;;;;;;;5.80;5.07;;;;;;;26.39;58.20;158160.94;5068383;28;20879;-75
2021/08/11 08:06:29;;;;;;;5.73;5.23;;;;;;;26.84;55.74;158277.56;5108890;27;20447;-74
2021/08/11 08:09:05;;;;;;;5.33;4.30;;;;;;;26.90;55.16;158294.56;5087067;28;20443;-75
2021/08/11 08:11:40;;;;;;;4.67;4.27;;;;;;;27.10;57.18;158345.69;5072083;28;20482;-75
2021/08/11 08:14:16;;;;;;;4.73;4.20;;;;;;;27.28;55.09;158391.50;5091553;28;20441;-74
2021/08/11 08:16:52;;;;;;;4.93;4.53;;;;;;;27.34;54.66;158407.25;5067372;28;20453;-75
2021/08/11 08:19:27;;;;;;;6.20;5.30;;;;;;;27.77;53.90;158521.31;5092878;28;20512;-75
2021/08/11 08:22:04;;;;;;;4.90;4.40;;;;;;;27.92;52.14;158558.03;5065213;28;20442;-75
2021/08/11 08:24:40;;;;;;;5.00;4.53;;;;;;;28.05;53.63;158593.47;5060155;28;20467;-75
2021/08/11 08:27:16;;;;;;;6.00;4.00;;;;;;;28.28;51.37;158652.44;5057794;28;20486;-75
2021/08/11 08:29:52;;;;;;;5.33;4.83;;;;;;;28.13;51.15;158613.13;5072761;28;20446;-74
2021/08/11 08:32:29;;;;;;;5.20;4.70;;;;;;;27.96;52.12;158568.53;5051242;28;20929;-75
2021/08/11 08:35:06;;;;;;;9.70;5.20;;;;;;;28.11;53.98;158609.22;5089645;28;20533;-75
2021/08/11 08:37:43;;;;;;;9.30;5.03;;;;;;;28.28;53.64;158652.44;5068382;28;20536;-75
2021/08/11 08:40:18;;;;;;;5.23;4.77;;;;;;;28.57;51.24;158727.22;5102136;28;20886;-75
2021/08/11 08:42:54;;;;;;;5.53;4.90;;;;;;;28.80;51.75;158788.91;5093013;28;20452;-76
2021/08/11 08:45:30;;;;;;;5.87;4.90;;;;;;;28.73;50.76;158770.53;5091862;28;20450;-75
2021/08/11 08:48:08;;;;;;;6.30;5.17;;;;;;;28.86;50.17;158804.63;5084040;28;20533;-75
2021/08/11 08:50:45;;;;;;;6.17;5.20;;;;;;;28.86;51.11;158804.63;5066889;28;20873;-75
2021/08/11 08:53:22;;;;;;;6.10;4.37;;;;;;;29.08;52.09;158859.72;5103707;28;20732;-75
2021/08/11 08:55:58;;;;;;;6.60;4.83;;;;;;;28.93;50.89;158823.03;5058209;28;20451;-75
2021/08/11 08:58:33;;;;;;;5.63;4.60;;;;;;;29.10;51.49;158865.00;5049360;28;20495;-75
2021/08/11 09:01:09;;;;;;;4.97;4.53;;;;;;;29.40;49.17;158943.75;5067138;28;20445;-75
2021/08/11 09:03:45;;;;;;;5.30;4.87;;;;;;;29.38;52.40;158938.50;5071068;28;20430;-75
2021/08/11 09:06:21;;;;;;;5.70;5.03;;;;;;;29.24;49.43;158901.75;5092325;28;20442;-75
2021/08/11 09:08:58;;;;;;;5.10;4.60;;;;;;;29.23;49.33;158899.16;5069661;28;20857;-75
2021/08/11 09:11:34;;;;;;;5.50;5.00;;;;;;;29.30;48.62;158917.50;5070517;28;20879;-75
2021/08/11 09:14:17;;;;;;;5.00;4.60;;;;;;;29.25;49.46;158904.38;5066958;28;20501;-75
2021/08/11 09:16:54;;;;;;;5.30;4.90;;;;;;;29.62;48.34;159000.16;5069192;28;20805;-76
2021/08/11 09:19:37;;;;;;;5.43;4.70;;;;;;;29.62;47.77;159001.50;5093620;28;20473;-75
2021/08/11 09:22:15;;;;;;;6.77;4.90;;;;;;;29.90;47.04;159075.00;5069876;28;20920;-75
2021/08/11 09:25:05;;;;;;;5.93;5.33;;;;;;;29.37;48.50;158937.19;5080734;28;20500;-75
2021/08/11 09:27:41;;;;;;;6.17;5.00;;;;;;;29.37;48.29;158935.84;5072157;28;20446;-75
2021/08/11 09:30:20;;;;;;;7.60;5.40;;;;;;;29.08;49.27;158861.03;5083396;28;21002;-75
2021/08/11 09:32:58;;;;;;;4.80;4.40;;;;;;;29.05;48.56;158853.16;5059540;28;20950;-75
2021/08/11 09:35:35;;;;;;;5.17;4.67;;;;;;;28.99;50.86;158838.72;5096849;28;20477;-75
2021/08/11 09:38:12;;;;;;;5.10;4.70;;;;;;;28.89;50.51;158812.50;5097563;28;20446;-75
2021/08/11 09:40:50;;;;;;;4.97;4.57;;;;;;;28.90;49.40;158815.13;5074401;28;20529;-75
2021/08/11 09:43:33;;;;;;;5.57;4.90;;;;;;;29.06;48.74;158854.47;5073684;28;20780;-75
2021/08/11 09:46:10;;;;;;;5.20;4.70;;;;;;;28.88;49.35;158809.91;5061813;28;20467;-76
2021/08/11 09:48:47;;;;;;;5.70;4.80;;;;;;;28.72;48.99;158767.94;5068349;28;20473;-75
2021/08/11 09:51:22;;;;;;;5.40;4.90;;;;;;;28.70;50.16;158762.66;5072265;28;20845;-75
2021/08/11 09:53:57;;;;;;;5.70;4.33;;;;;;;28.58;50.36;158729.81;5096808;28;20976;-75
2021/08/11 09:56:38;;;;;;;5.00;4.50;;;;;;;28.80;49.43;158788.91;5090563;28;20454;-75
2021/08/11 09:59:14;;;;;;;6.27;4.60;;;;;;;28.87;52.86;158805.94;5060324;28;20485;-75
2021/08/11 10:01:49;;;;;;;4.93;4.53;;;;;;;28.74;50.73;158773.16;5071813;28;20528;-76
2021/08/11 10:04:40;;;;;;;5.60;5.20;;;;;;;29.01;48.97;158841.38;5097219;28;20454;-75
2021/08/11 10:07:16;;;;;;;5.37;4.87;;;;;;;29.02;47.96;158845.28;5099715;28;20426;-75
2021/08/11 10:10:01;;;;;;;20.90;8.60;;;;;;;28.60;48.62;158736.38;5106989;28;20442;-74
2021/08/11 10:12:39;;;;;;;21.17;8.10;;;;;;;28.18;50.29;158627.56;5072757;28;20553;-75
2021/08/11 10:15:15;;;;;;;27.03;9.73;;;;;;;28.30;50.13;158659.00;5107416;28;20450;-75
2021/08/11 10:17:52;;;;;;;6.13;5.20;;;;;;;28.02;50.17;158585.59;5087104;28;20851;-75
2021/08/11 10:20:29;;;;;;;5.87;4.90;;;;;;;27.79;51.26;158526.59;5095324;28;20971;-75
2021/08/11 10:23:05;;;;;;;6.67;4.80;;;;;;;27.82;52.08;158531.81;5096602;28;20446;-76
2021/08/11 10:25:41;;;;;;;5.30;4.80;;;;;;;27.46;52.62;158440.06;5070067;28;20454;-75
2021/08/11 10:28:23;;;;;;;5.00;4.37;;;;;;;28.28;50.57;158652.44;5104961;28;20453;-75
2021/08/11 10:30:59;;;;;;;4.87;4.47;;;;;;;28.33;51.33;158665.56;5089279;28;20563;-75
2021/08/11 10:33:36;;;;;;;7.80;5.23;;;;;;;27.80;51.68;158527.84;5093445;28;20465;-75
2021/08/11 10:36:12;;;;;;;6.30;5.70;;;;;;;27.55;51.67;158463.66;5083607;28;20537;-74
2021/08/11 10:38:47;;;;;;;5.20;4.80;;;;;;;27.12;53.05;158350.91;5061731;28;20917;-74
2021/08/11 10:41:27;;;;;;;5.17;4.67;;;;;;;26.91;54.40;158295.88;5074533;28;20994;-75
2021/08/11 10:44:06;;;;;;;9.50;5.90;;;;;;;26.80;55.13;158267.06;5098862;28;20450;-75
2021/08/11 10:46:43;;;;;;;5.50;5.00;;;;;;;26.78;54.49;158261.81;5064639;28;20541;-75
2021/08/11 10:49:19;;;;;;;7.20;5.27;;;;;;;26.68;55.13;158235.59;5100762;28;20430;-75
2021/08/11 10:51:59;;;;;;;5.10;4.20;;;;;;;26.61;56.52;158219.84;5072675;28;20450;-75
2021/08/11 10:54:49;;;;;;;5.87;5.03;;;;;;;26.18;55.39;158107.25;5054827;28;20430;-75
2021/08/11 10:57:47;;;;;;;6.80;6.10;;;;;;;26.34;55.62;158149.16;5085844;28;20451;-75
2021/08/11 11:00:44;;;;;;;6.10;5.07;;;;;;;26.22;56.18;158116.38;5086501;28;20530;-75
2021/08/11 11:03:48;;;;;;;5.17;4.77;;;;;;;26.02;56.24;158066.63;5086462;28;20439;-75
2021/08/11 11:06:24;;;;;;;5.50;5.00;;;;;;;26.27;58.79;158129.47;5078360;28;20433;-75
2021/08/11 11:09:17;;;;;;;5.60;5.10;;;;;;;26.46;57.71;158179.25;5084901;28;20576;-75
2021/08/11 11:11:53;;;;;;;5.33;4.93;;;;;;;26.47;57.62;158183.22;5069746;28;20450;-75
2021/08/11 11:14:57;;;;;;;5.80;4.97;;;;;;;26.53;57.62;158198.91;5068891;28;20431;-75
2021/08/11 11:17:35;;;;;;;5.10;4.60;;;;;;;26.58;57.42;158212.00;5070175;28;20438;-75
2021/08/11 11:20:21;;;;;;;5.80;5.30;;;;;;;26.40;57.60;158164.84;5070392;28;20536;-74
2021/08/11 11:23:07;;;;;;;6.70;5.10;;;;;;;26.65;59.77;158227.72;5069820;28;20445;-75
2021/08/11 11:25:59;;;;;;;9.40;6.00;;;;;;;26.38;58.55;158158.31;5096667;28;20811;-75
2021/08/11 11:29:03;;;;;;;6.50;5.90;;;;;;;26.58;57.37;158210.72;5052512;28;20458;-75
2021/08/11 11:31:47;;;;;;;7.70;5.83;;;;;;;26.31;56.73;158139.97;5065466;28;20456;-75
2021/08/11 11:34:33;;;;;;;6.07;5.57;;;;;;;26.36;56.64;158154.41;5097472;28;20474;-75
2021/08/11 11:37:23;;;;;;;6.17;5.67;;;;;;;26.47;58.50;158181.91;5059633;28;20438;-74
2021/08/11 11:40:05;;;;;;;6.43;5.53;;;;;;;26.32;56.47;158143.88;5069599;28;20439;-74
2021/08/11 11:42:41;;;;;;;5.83;5.23;;;;;;;26.44;56.16;158174.03;5100218;28;20962;-75
2021/08/11 11:45:37;;;;;;;5.10;4.63;;;;;;;26.44;55.95;158175.34;5042020;28;20954;-74
2021/08/11 11:48:13;;;;;;;6.20;5.60;;;;;;;26.38;54.35;158159.63;5069662;28;20447;-75
2021/08/11 11:50:51;;;;;;;5.43;4.93;;;;;;;26.43;54.17;158172.72;5094821;28;20437;-75
2021/08/11 11:53:30;;;;;;;5.90;5.40;;;;;;;26.35;53.38;158151.75;5091553;28;20494;-74
2021/08/11 11:56:11;;;;;;;5.23;4.77;;;;;;;26.24;53.32;158121.66;5105532;28;20446;-74
2021/08/11 11:58:47;;;;;;;6.57;5.87;;;;;;;26.19;56.21;158109.84;5072205;28;21000;-75
2021/08/11 12:01:23;;;;;;;6.10;5.50;;;;;;;25.95;58.07;158046.94;5071102;28;20449;-74
2021/08/11 12:04:00;;;;;;;6.53;5.93;;;;;;;25.73;60.73;157989.38;5072393;28;20466;-74
2021/08/11 12:06:43;;;;;;;7.73;6.60;;;;;;;25.62;60.20;157960.56;5101418;27;20944;-74
2021/08/11 12:09:19;;;;;;;7.43;5.50;;;;;;;25.64;60.89;157967.09;5060083;28;20478;-74
2021/08/11 12:11:54;;;;;;;6.40;5.77;;;;;;;25.65;59.83;157968.44;5067547;28;20449;-74
2021/08/11 12:14:30;;;;;;;6.33;5.73;;;;;;;25.77;61.40;158001.13;5067199;28;21057;-75